sensor_id;sensor_type;location;lat;lon;timestamp;P1;durP1;ratioP1;P2;durP2;ratioP2
4021;SDS011;2025;48.260;16.432;2023-04-06T00:00:10;8.65;;;2.65;;
4021;SDS011;2025;48.260;16.432;2023-04-06T00:02:38;7.03;;;3.00;;
4021;SDS011;2025;48.260;16.432;2023-04-06T00:05:07;6.57;;;2.50;;
4021;SDS011;2025;48.260;16.432;2023-04-06T00:07:34;6.97;;;2.97;;
4021;SDS011;2025;48.260;16.432;2023-04-06T00:12:28;6.53;;;3.00;;
4021;SDS011;2025;48.260;16.432;2023-04-06T00:14:55;7.07;;;2.60;;
4021;SDS011;2025;48.260;16.432;2023-04-06T00:17:22;5.45;;;2.15;;
4021;SDS011;2025;48.260;16.432;2023-04-06T00:19:49;6.38;;;2.88;;
4021;SDS011;2025;48.260;16.432;2023-04-06T00:24:45;5.68;;;2.28;;
4021;SDS011;2025;48.260;16.432;2023-04-06T00:29:39;8.52;;;3.95;;
4021;SDS011;2025;48.260;16.432;2023-04-06T00:32:06;4.70;;;2.33;;
4021;SDS011;2025;48.260;16.432;2023-04-06T00:37:00;7.35;;;2.63;;
4021;SDS011;2025;48.260;16.432;2023-04-06T00:39:28;7.72;;;4.28;;
4021;SDS011;2025;48.260;16.432;2023-04-06T00:41:55;6.53;;;2.97;;
4021;SDS011;2025;48.260;16.432;2023-04-06T00:44:23;7.60;;;2.67;;
4021;SDS011;2025;48.260;16.432;2023-04-06T00:46:50;7.13;;;2.30;;
4021;SDS011;2025;48.260;16.432;2023-04-06T00:49:17;6.65;;;2.70;;
4021;SDS011;2025;48.260;16.432;2023-04-06T00:51:44;6.25;;;2.58;;
4021;SDS011;2025;48.260;16.432;2023-04-06T00:54:11;6.68;;;2.38;;
4021;SDS011;2025;48.260;16.432;2023-04-06T00:56:40;6.95;;;3.00;;
4021;SDS011;2025;48.260;16.432;2023-04-06T00:59:08;7.25;;;2.60;;
4021;SDS011;2025;48.260;16.432;2023-04-06T01:01:36;6.32;;;3.17;;
4021;SDS011;2025;48.260;16.432;2023-04-06T01:04:03;9.05;;;4.00;;
4021;SDS011;2025;48.260;16.432;2023-04-06T01:06:30;6.30;;;2.75;;
4021;SDS011;2025;48.260;16.432;2023-04-06T01:08:57;6.50;;;2.17;;
4021;SDS011;2025;48.260;16.432;2023-04-06T01:11:24;6.93;;;2.95;;
4021;SDS011;2025;48.260;16.432;2023-04-06T01:13:52;7.40;;;3.55;;
4021;SDS011;2025;48.260;16.432;2023-04-06T01:16:19;7.13;;;2.78;;
4021;SDS011;2025;48.260;16.432;2023-04-06T01:18:47;7.40;;;2.83;;
4021;SDS011;2025;48.260;16.432;2023-04-06T01:23:43;8.35;;;3.20;;
4021;SDS011;2025;48.260;16.432;2023-04-06T01:26:11;6.03;;;3.22;;
4021;SDS011;2025;48.260;16.432;2023-04-06T01:28:38;6.93;;;3.25;;
4021;SDS011;2025;48.260;16.432;2023-04-06T01:31:07;10.38;;;2.60;;
4021;SDS011;2025;48.260;16.432;2023-04-06T01:33:35;8.15;;;2.78;;
4021;SDS011;2025;48.260;16.432;2023-04-06T01:36:03;6.78;;;3.25;;
4021;SDS011;2025;48.260;16.432;2023-04-06T01:38:30;7.60;;;2.63;;
4021;SDS011;2025;48.260;16.432;2023-04-06T01:40:58;8.20;;;3.90;;
4021;SDS011;2025;48.260;16.432;2023-04-06T01:43:25;5.70;;;2.97;;
4021;SDS011;2025;48.260;16.432;2023-04-06T01:45:52;5.72;;;3.13;;
4021;SDS011;2025;48.260;16.432;2023-04-06T01:48:20;5.68;;;2.80;;
4021;SDS011;2025;48.260;16.432;2023-04-06T01:50:47;6.10;;;2.35;;
4021;SDS011;2025;48.260;16.432;2023-04-06T01:53:14;10.07;;;2.92;;
4021;SDS011;2025;48.260;16.432;2023-04-06T01:55:41;6.78;;;2.80;;
4021;SDS011;2025;48.260;16.432;2023-04-06T01:58:10;7.95;;;3.15;;
4021;SDS011;2025;48.260;16.432;2023-04-06T02:00:37;6.60;;;2.65;;
4021;SDS011;2025;48.260;16.432;2023-04-06T02:03:04;6.30;;;3.20;;
4021;SDS011;2025;48.260;16.432;2023-04-06T02:05:31;7.35;;;2.65;;
4021;SDS011;2025;48.260;16.432;2023-04-06T02:08:03;7.10;;;3.15;;
4021;SDS011;2025;48.260;16.432;2023-04-06T02:10:30;7.75;;;3.47;;
4021;SDS011;2025;48.260;16.432;2023-04-06T02:12:57;5.95;;;3.00;;
4021;SDS011;2025;48.260;16.432;2023-04-06T02:15:26;6.45;;;2.47;;
4021;SDS011;2025;48.260;16.432;2023-04-06T02:17:53;7.90;;;2.38;;
4021;SDS011;2025;48.260;16.432;2023-04-06T02:20:20;7.03;;;2.90;;
4021;SDS011;2025;48.260;16.432;2023-04-06T02:25:13;6.72;;;2.13;;
4021;SDS011;2025;48.260;16.432;2023-04-06T02:27:41;5.45;;;2.22;;
4021;SDS011;2025;48.260;16.432;2023-04-06T02:32:36;6.22;;;2.88;;
4021;SDS011;2025;48.260;16.432;2023-04-06T02:35:04;5.72;;;2.33;;
4021;SDS011;2025;48.260;16.432;2023-04-06T02:37:31;5.82;;;1.77;;
4021;SDS011;2025;48.260;16.432;2023-04-06T02:39:58;6.30;;;3.33;;
4021;SDS011;2025;48.260;16.432;2023-04-06T02:42:25;6.30;;;2.60;;
4021;SDS011;2025;48.260;16.432;2023-04-06T02:44:52;6.55;;;2.70;;
4021;SDS011;2025;48.260;16.432;2023-04-06T02:47:19;5.90;;;3.03;;
4021;SDS011;2025;48.260;16.432;2023-04-06T02:52:14;7.38;;;3.88;;
4021;SDS011;2025;48.260;16.432;2023-04-06T02:54:43;6.85;;;2.95;;
4021;SDS011;2025;48.260;16.432;2023-04-06T02:57:10;5.88;;;3.35;;
4021;SDS011;2025;48.260;16.432;2023-04-06T02:59:37;7.03;;;2.85;;
4021;SDS011;2025;48.260;16.432;2023-04-06T03:04:30;5.97;;;2.15;;
4021;SDS011;2025;48.260;16.432;2023-04-06T03:06:59;8.50;;;3.47;;
4021;SDS011;2025;48.260;16.432;2023-04-06T03:09:26;5.53;;;2.17;;
4021;SDS011;2025;48.260;16.432;2023-04-06T03:11:53;9.43;;;3.10;;
4021;SDS011;2025;48.260;16.432;2023-04-06T03:14:21;7.25;;;3.67;;
4021;SDS011;2025;48.260;16.432;2023-04-06T03:16:48;7.30;;;2.45;;
4021;SDS011;2025;48.260;16.432;2023-04-06T03:19:15;7.82;;;2.53;;
4021;SDS011;2025;48.260;16.432;2023-04-06T03:21:42;6.28;;;2.40;;
4021;SDS011;2025;48.260;16.432;2023-04-06T03:24:10;5.65;;;2.28;;
4021;SDS011;2025;48.260;16.432;2023-04-06T03:26:39;5.22;;;2.17;;
4021;SDS011;2025;48.260;16.432;2023-04-06T03:29:06;5.97;;;2.80;;
4021;SDS011;2025;48.260;16.432;2023-04-06T03:33:59;9.45;;;2.20;;
4021;SDS011;2025;48.260;16.432;2023-04-06T03:36:26;8.23;;;2.75;;
4021;SDS011;2025;48.260;16.432;2023-04-06T03:38:53;6.43;;;2.28;;
4021;SDS011;2025;48.260;16.432;2023-04-06T03:43:49;5.55;;;2.88;;
4021;SDS011;2025;48.260;16.432;2023-04-06T03:48:42;7.53;;;3.25;;
4021;SDS011;2025;48.260;16.432;2023-04-06T03:51:09;7.85;;;3.10;;
4021;SDS011;2025;48.260;16.432;2023-04-06T03:56:03;5.97;;;2.10;;
4021;SDS011;2025;48.260;16.432;2023-04-06T03:58:32;8.45;;;3.17;;
4021;SDS011;2025;48.260;16.432;2023-04-06T04:00:59;5.57;;;2.65;;
4021;SDS011;2025;48.260;16.432;2023-04-06T04:03:26;7.35;;;3.28;;
4021;SDS011;2025;48.260;16.432;2023-04-06T04:05:54;5.55;;;2.60;;
4021;SDS011;2025;48.260;16.432;2023-04-06T04:08:21;7.32;;;2.47;;
4021;SDS011;2025;48.260;16.432;2023-04-06T04:13:15;8.02;;;2.83;;
4021;SDS011;2025;48.260;16.432;2023-04-06T04:15:43;8.65;;;2.53;;
4021;SDS011;2025;48.260;16.432;2023-04-06T04:18:12;5.75;;;2.38;;
4021;SDS011;2025;48.260;16.432;2023-04-06T04:20:39;7.78;;;2.90;;
4021;SDS011;2025;48.260;16.432;2023-04-06T04:25:33;5.90;;;2.55;;
4021;SDS011;2025;48.260;16.432;2023-04-06T04:28:00;6.93;;;2.95;;
4021;SDS011;2025;48.260;16.432;2023-04-06T04:30:27;8.05;;;2.22;;
4021;SDS011;2025;48.260;16.432;2023-04-06T04:32:55;7.38;;;3.53;;
4021;SDS011;2025;48.260;16.432;2023-04-06T04:35:22;6.53;;;2.50;;
4021;SDS011;2025;48.260;16.432;2023-04-06T04:37:49;6.97;;;3.22;;
4021;SDS011;2025;48.260;16.432;2023-04-06T04:42:43;5.68;;;2.40;;
4021;SDS011;2025;48.260;16.432;2023-04-06T04:45:10;7.20;;;3.40;;
4021;SDS011;2025;48.260;16.432;2023-04-06T04:47:38;6.53;;;3.03;;
4021;SDS011;2025;48.260;16.432;2023-04-06T04:50:06;6.82;;;3.15;;
4021;SDS011;2025;48.260;16.432;2023-04-06T04:52:34;7.97;;;2.50;;
4021;SDS011;2025;48.260;16.432;2023-04-06T04:57:28;6.13;;;3.13;;
4021;SDS011;2025;48.260;16.432;2023-04-06T04:59:55;8.02;;;3.53;;
4021;SDS011;2025;48.260;16.432;2023-04-06T05:02:22;8.10;;;3.47;;
4021;SDS011;2025;48.260;16.432;2023-04-06T05:04:49;7.00;;;3.45;;
4021;SDS011;2025;48.260;16.432;2023-04-06T05:09:46;8.32;;;3.15;;
4021;SDS011;2025;48.260;16.432;2023-04-06T05:12:13;8.20;;;3.08;;
4021;SDS011;2025;48.260;16.432;2023-04-06T05:14:40;6.43;;;3.63;;
4021;SDS011;2025;48.260;16.432;2023-04-06T05:17:07;6.47;;;3.55;;
4021;SDS011;2025;48.260;16.432;2023-04-06T05:19:35;9.32;;;3.80;;
4021;SDS011;2025;48.260;16.432;2023-04-06T05:22:02;6.75;;;3.47;;
4021;SDS011;2025;48.260;16.432;2023-04-06T05:24:30;6.20;;;3.00;;
4021;SDS011;2025;48.260;16.432;2023-04-06T05:26:57;7.93;;;3.22;;
4021;SDS011;2025;48.260;16.432;2023-04-06T05:29:25;8.57;;;3.25;;
4021;SDS011;2025;48.260;16.432;2023-04-06T05:31:52;7.00;;;3.97;;
4021;SDS011;2025;48.260;16.432;2023-04-06T05:34:19;8.40;;;3.50;;
4021;SDS011;2025;48.260;16.432;2023-04-06T05:36:46;7.07;;;3.30;;
4021;SDS011;2025;48.260;16.432;2023-04-06T05:39:13;7.28;;;3.22;;
4021;SDS011;2025;48.260;16.432;2023-04-06T05:41:42;8.00;;;3.58;;
4021;SDS011;2025;48.260;16.432;2023-04-06T05:44:09;7.22;;;3.53;;
4021;SDS011;2025;48.260;16.432;2023-04-06T05:46:36;8.77;;;3.72;;
4021;SDS011;2025;48.260;16.432;2023-04-06T05:49:03;8.98;;;3.92;;
4021;SDS011;2025;48.260;16.432;2023-04-06T05:53:56;11.65;;;3.78;;
4021;SDS011;2025;48.260;16.432;2023-04-06T05:56:24;8.25;;;3.83;;
4021;SDS011;2025;48.260;16.432;2023-04-06T05:58:53;6.25;;;3.35;;
4021;SDS011;2025;48.260;16.432;2023-04-06T06:01:20;6.10;;;3.35;;
4021;SDS011;2025;48.260;16.432;2023-04-06T06:03:47;8.80;;;4.30;;
4021;SDS011;2025;48.260;16.432;2023-04-06T06:06:13;8.80;;;4.43;;
4021;SDS011;2025;48.260;16.432;2023-04-06T06:08:40;6.80;;;3.80;;
4021;SDS011;2025;48.260;16.432;2023-04-06T06:11:07;7.90;;;4.22;;
4021;SDS011;2025;48.260;16.432;2023-04-06T06:13:34;8.85;;;4.78;;
4021;SDS011;2025;48.260;16.432;2023-04-06T06:16:03;10.82;;;3.92;;
4021;SDS011;2025;48.260;16.432;2023-04-06T06:18:31;7.45;;;3.22;;
4021;SDS011;2025;48.260;16.432;2023-04-06T06:20:58;8.88;;;3.17;;
4021;SDS011;2025;48.260;16.432;2023-04-06T06:23:25;8.30;;;3.65;;
4021;SDS011;2025;48.260;16.432;2023-04-06T06:25:52;6.13;;;2.80;;
4021;SDS011;2025;48.260;16.432;2023-04-06T06:28:21;8.50;;;3.63;;
4021;SDS011;2025;48.260;16.432;2023-04-06T06:30:50;7.03;;;3.30;;
4021;SDS011;2025;48.260;16.432;2023-04-06T06:33:18;9.70;;;4.03;;
4021;SDS011;2025;48.260;16.432;2023-04-06T06:35:46;7.97;;;3.95;;
4021;SDS011;2025;48.260;16.432;2023-04-06T06:38:13;10.80;;;4.00;;
4021;SDS011;2025;48.260;16.432;2023-04-06T06:40:40;9.40;;;3.25;;
4021;SDS011;2025;48.260;16.432;2023-04-06T06:43:07;8.65;;;3.80;;
4021;SDS011;2025;48.260;16.432;2023-04-06T06:45:34;8.13;;;3.83;;
4021;SDS011;2025;48.260;16.432;2023-04-06T06:48:01;11.57;;;4.78;;
4021;SDS011;2025;48.260;16.432;2023-04-06T06:50:30;10.88;;;4.38;;
4021;SDS011;2025;48.260;16.432;2023-04-06T06:52:57;9.13;;;4.65;;
4021;SDS011;2025;48.260;16.432;2023-04-06T06:55:24;11.15;;;4.75;;
4021;SDS011;2025;48.260;16.432;2023-04-06T06:57:51;8.23;;;3.75;;
4021;SDS011;2025;48.260;16.432;2023-04-06T07:00:19;10.25;;;4.85;;
4021;SDS011;2025;48.260;16.432;2023-04-06T07:02:46;8.35;;;3.95;;
4021;SDS011;2025;48.260;16.432;2023-04-06T07:05:14;9.27;;;4.30;;
4021;SDS011;2025;48.260;16.432;2023-04-06T07:07:43;8.85;;;4.80;;
4021;SDS011;2025;48.260;16.432;2023-04-06T07:10:10;9.23;;;3.97;;
4021;SDS011;2025;48.260;16.432;2023-04-06T07:12:37;9.07;;;4.15;;
4021;SDS011;2025;48.260;16.432;2023-04-06T07:15:05;8.10;;;4.00;;
4021;SDS011;2025;48.260;16.432;2023-04-06T07:17:33;8.55;;;3.60;;
4021;SDS011;2025;48.260;16.432;2023-04-06T07:20:00;10.15;;;4.88;;
4021;SDS011;2025;48.260;16.432;2023-04-06T07:22:27;12.00;;;4.57;;
4021;SDS011;2025;48.260;16.432;2023-04-06T07:24:56;9.05;;;4.10;;
4021;SDS011;2025;48.260;16.432;2023-04-06T07:27:23;10.73;;;4.78;;
4021;SDS011;2025;48.260;16.432;2023-04-06T07:29:50;9.00;;;4.47;;
4021;SDS011;2025;48.260;16.432;2023-04-06T07:32:17;10.18;;;4.15;;
4021;SDS011;2025;48.260;16.432;2023-04-06T07:34:44;7.30;;;3.25;;
4021;SDS011;2025;48.260;16.432;2023-04-06T07:37:12;9.23;;;3.67;;
4021;SDS011;2025;48.260;16.432;2023-04-06T07:39:39;11.02;;;4.65;;
4021;SDS011;2025;48.260;16.432;2023-04-06T07:42:07;8.40;;;3.78;;
4021;SDS011;2025;48.260;16.432;2023-04-06T07:44:35;11.50;;;4.05;;
4021;SDS011;2025;48.260;16.432;2023-04-06T07:47:02;10.02;;;4.43;;
4021;SDS011;2025;48.260;16.432;2023-04-06T07:49:29;7.97;;;3.78;;
4021;SDS011;2025;48.260;16.432;2023-04-06T07:51:57;8.73;;;3.60;;
4021;SDS011;2025;48.260;16.432;2023-04-06T07:54:24;12.20;;;3.95;;
4021;SDS011;2025;48.260;16.432;2023-04-06T07:56:51;8.68;;;4.63;;
4021;SDS011;2025;48.260;16.432;2023-04-06T07:59:20;9.15;;;3.67;;
4021;SDS011;2025;48.260;16.432;2023-04-06T08:01:47;7.75;;;3.58;;
4021;SDS011;2025;48.260;16.432;2023-04-06T08:04:14;10.90;;;3.70;;
4021;SDS011;2025;48.260;16.432;2023-04-06T08:06:41;7.97;;;3.05;;
4021;SDS011;2025;48.260;16.432;2023-04-06T08:09:08;7.75;;;3.35;;
4021;SDS011;2025;48.260;16.432;2023-04-06T08:11:35;6.65;;;3.10;;
4021;SDS011;2025;48.260;16.432;2023-04-06T08:14:02;7.00;;;3.00;;
4021;SDS011;2025;48.260;16.432;2023-04-06T08:16:30;8.32;;;3.45;;
4021;SDS011;2025;48.260;16.432;2023-04-06T08:18:57;9.32;;;2.72;;
4021;SDS011;2025;48.260;16.432;2023-04-06T08:21:24;7.40;;;2.80;;
4021;SDS011;2025;48.260;16.432;2023-04-06T08:23:51;7.15;;;3.20;;
4021;SDS011;2025;48.260;16.432;2023-04-06T08:26:18;6.57;;;3.17;;
4021;SDS011;2025;48.260;16.432;2023-04-06T08:28:46;6.90;;;3.22;;
4021;SDS011;2025;48.260;16.432;2023-04-06T08:31:13;7.65;;;2.50;;
4021;SDS011;2025;48.260;16.432;2023-04-06T08:33:41;8.77;;;3.80;;
4021;SDS011;2025;48.260;16.432;2023-04-06T08:36:09;8.52;;;3.33;;
4021;SDS011;2025;48.260;16.432;2023-04-06T08:38:37;8.25;;;3.38;;
4021;SDS011;2025;48.260;16.432;2023-04-06T08:41:08;9.07;;;3.58;;
4021;SDS011;2025;48.260;16.432;2023-04-06T08:43:36;9.30;;;3.15;;
4021;SDS011;2025;48.260;16.432;2023-04-06T08:46:10;8.00;;;3.63;;
4021;SDS011;2025;48.260;16.432;2023-04-06T08:48:38;8.25;;;3.45;;
4021;SDS011;2025;48.260;16.432;2023-04-06T08:51:07;9.07;;;4.30;;
4021;SDS011;2025;48.260;16.432;2023-04-06T08:53:34;7.63;;;3.90;;
4021;SDS011;2025;48.260;16.432;2023-04-06T08:56:02;7.70;;;4.13;;
4021;SDS011;2025;48.260;16.432;2023-04-06T08:58:32;7.70;;;3.85;;
4021;SDS011;2025;48.260;16.432;2023-04-06T09:01:01;7.38;;;2.97;;
4021;SDS011;2025;48.260;16.432;2023-04-06T09:03:32;6.97;;;3.50;;
4021;SDS011;2025;48.260;16.432;2023-04-06T09:06:03;7.45;;;2.97;;
4021;SDS011;2025;48.260;16.432;2023-04-06T09:08:32;7.60;;;2.97;;
4021;SDS011;2025;48.260;16.432;2023-04-06T09:11:00;9.35;;;3.70;;
4021;SDS011;2025;48.260;16.432;2023-04-06T09:13:27;7.32;;;2.92;;
4021;SDS011;2025;48.260;16.432;2023-04-06T09:16:01;9.07;;;2.33;;
4021;SDS011;2025;48.260;16.432;2023-04-06T09:18:29;5.22;;;1.80;;
4021;SDS011;2025;48.260;16.432;2023-04-06T09:20:58;6.40;;;2.20;;
4021;SDS011;2025;48.260;16.432;2023-04-06T09:23:27;6.72;;;2.15;;
4021;SDS011;2025;48.260;16.432;2023-04-06T09:26:05;5.03;;;1.92;;
4021;SDS011;2025;48.260;16.432;2023-04-06T09:28:43;7.32;;;2.65;;
4021;SDS011;2025;48.260;16.432;2023-04-06T09:31:12;7.28;;;2.65;;
4021;SDS011;2025;48.260;16.432;2023-04-06T09:33:40;6.68;;;2.20;;
4021;SDS011;2025;48.260;16.432;2023-04-06T09:36:08;5.22;;;2.17;;
4021;SDS011;2025;48.260;16.432;2023-04-06T09:38:36;6.35;;;2.75;;
4021;SDS011;2025;48.260;16.432;2023-04-06T09:41:05;6.15;;;2.58;;
4021;SDS011;2025;48.260;16.432;2023-04-06T09:43:32;6.50;;;1.88;;
4021;SDS011;2025;48.260;16.432;2023-04-06T09:46:00;6.15;;;2.33;;
4021;SDS011;2025;48.260;16.432;2023-04-06T09:48:30;5.80;;;2.55;;
4021;SDS011;2025;48.260;16.432;2023-04-06T09:51:01;6.13;;;2.00;;
4021;SDS011;2025;48.260;16.432;2023-04-06T09:53:31;4.47;;;1.77;;
4021;SDS011;2025;48.260;16.432;2023-04-06T09:56:02;6.47;;;2.35;;
4021;SDS011;2025;48.260;16.432;2023-04-06T09:58:35;5.90;;;1.58;;
4021;SDS011;2025;48.260;16.432;2023-04-06T10:01:05;6.30;;;1.55;;
4021;SDS011;2025;48.260;16.432;2023-04-06T10:03:38;4.53;;;1.70;;
4021;SDS011;2025;48.260;16.432;2023-04-06T10:06:11;4.65;;;1.35;;
4021;SDS011;2025;48.260;16.432;2023-04-06T10:08:42;4.95;;;1.58;;
4021;SDS011;2025;48.260;16.432;2023-04-06T10:11:12;4.97;;;1.50;;
4021;SDS011;2025;48.260;16.432;2023-04-06T10:13:40;5.80;;;1.60;;
4021;SDS011;2025;48.260;16.432;2023-04-06T10:16:09;4.63;;;1.30;;
4021;SDS011;2025;48.260;16.432;2023-04-06T10:18:36;3.72;;;1.38;;
4021;SDS011;2025;48.260;16.432;2023-04-06T10:23:39;4.30;;;1.20;;
4021;SDS011;2025;48.260;16.432;2023-04-06T10:26:12;4.13;;;1.48;;
4021;SDS011;2025;48.260;16.432;2023-04-06T10:28:43;4.95;;;1.27;;
4021;SDS011;2025;48.260;16.432;2023-04-06T10:31:12;5.32;;;1.10;;
4021;SDS011;2025;48.260;16.432;2023-04-06T10:33:39;4.45;;;1.27;;
4021;SDS011;2025;48.260;16.432;2023-04-06T10:36:10;5.65;;;1.55;;
4021;SDS011;2025;48.260;16.432;2023-04-06T10:38:38;4.95;;;1.58;;
4021;SDS011;2025;48.260;16.432;2023-04-06T10:41:06;5.47;;;2.03;;
4021;SDS011;2025;48.260;16.432;2023-04-06T10:43:35;6.00;;;1.85;;
4021;SDS011;2025;48.260;16.432;2023-04-06T10:46:04;4.45;;;1.27;;
4021;SDS011;2025;48.260;16.432;2023-04-06T10:48:39;4.90;;;1.38;;
4021;SDS011;2025;48.260;16.432;2023-04-06T10:51:10;4.10;;;1.40;;
4021;SDS011;2025;48.260;16.432;2023-04-06T10:53:39;7.45;;;1.60;;
4021;SDS011;2025;48.260;16.432;2023-04-06T10:56:09;4.15;;;1.10;;
4021;SDS011;2025;48.260;16.432;2023-04-06T10:58:37;4.40;;;1.52;;
4021;SDS011;2025;48.260;16.432;2023-04-06T11:01:11;5.30;;;1.30;;
4021;SDS011;2025;48.260;16.432;2023-04-06T11:03:43;4.07;;;1.23;;
4021;SDS011;2025;48.260;16.432;2023-04-06T11:06:11;4.72;;;1.17;;
4021;SDS011;2025;48.260;16.432;2023-04-06T11:08:44;7.30;;;0.93;;
4021;SDS011;2025;48.260;16.432;2023-04-06T11:11:12;5.30;;;1.40;;
4021;SDS011;2025;48.260;16.432;2023-04-06T11:13:41;6.32;;;1.23;;
4021;SDS011;2025;48.260;16.432;2023-04-06T11:16:14;4.65;;;1.45;;
4021;SDS011;2025;48.260;16.432;2023-04-06T11:18:49;4.20;;;0.80;;
4021;SDS011;2025;48.260;16.432;2023-04-06T11:21:17;3.83;;;1.13;;
4021;SDS011;2025;48.260;16.432;2023-04-06T11:23:45;4.97;;;1.60;;
4021;SDS011;2025;48.260;16.432;2023-04-06T11:26:12;4.40;;;1.20;;
4021;SDS011;2025;48.260;16.432;2023-04-06T11:28:40;5.88;;;1.33;;
4021;SDS011;2025;48.260;16.432;2023-04-06T11:31:08;5.28;;;1.42;;
4021;SDS011;2025;48.260;16.432;2023-04-06T11:33:37;3.85;;;1.08;;
4021;SDS011;2025;48.260;16.432;2023-04-06T11:36:05;5.25;;;1.67;;
4021;SDS011;2025;48.260;16.432;2023-04-06T11:38:33;4.20;;;1.00;;
4021;SDS011;2025;48.260;16.432;2023-04-06T11:41:00;4.25;;;1.38;;
4021;SDS011;2025;48.260;16.432;2023-04-06T11:43:29;5.38;;;1.92;;
4021;SDS011;2025;48.260;16.432;2023-04-06T11:45:59;9.38;;;1.77;;
4021;SDS011;2025;48.260;16.432;2023-04-06T11:48:28;5.55;;;1.30;;
4021;SDS011;2025;48.260;16.432;2023-04-06T11:50:57;3.92;;;1.25;;
4021;SDS011;2025;48.260;16.432;2023-04-06T11:53:26;7.10;;;1.70;;
4021;SDS011;2025;48.260;16.432;2023-04-06T11:55:54;4.38;;;1.55;;
4021;SDS011;2025;48.260;16.432;2023-04-06T11:58:21;6.90;;;2.08;;
4021;SDS011;2025;48.260;16.432;2023-04-06T12:00:48;6.40;;;1.80;;
4021;SDS011;2025;48.260;16.432;2023-04-06T12:03:15;4.97;;;1.83;;
4021;SDS011;2025;48.260;16.432;2023-04-06T12:05:43;5.18;;;1.63;;
4021;SDS011;2025;48.260;16.432;2023-04-06T12:08:11;5.90;;;1.75;;
4021;SDS011;2025;48.260;16.432;2023-04-06T12:10:38;6.35;;;2.63;;
4021;SDS011;2025;48.260;16.432;2023-04-06T12:13:05;5.30;;;1.65;;
4021;SDS011;2025;48.260;16.432;2023-04-06T12:15:32;5.70;;;1.85;;
4021;SDS011;2025;48.260;16.432;2023-04-06T12:18:00;6.25;;;2.20;;
4021;SDS011;2025;48.260;16.432;2023-04-06T12:20:27;4.40;;;1.58;;
4021;SDS011;2025;48.260;16.432;2023-04-06T12:22:54;4.88;;;1.30;;
4021;SDS011;2025;48.260;16.432;2023-04-06T12:25:22;4.30;;;1.42;;
4021;SDS011;2025;48.260;16.432;2023-04-06T12:27:49;5.53;;;1.55;;
4021;SDS011;2025;48.260;16.432;2023-04-06T12:30:16;5.32;;;1.50;;
4021;SDS011;2025;48.260;16.432;2023-04-06T12:32:44;4.25;;;1.60;;
4021;SDS011;2025;48.260;16.432;2023-04-06T12:35:11;5.18;;;1.50;;
4021;SDS011;2025;48.260;16.432;2023-04-06T12:37:41;4.95;;;1.88;;
4021;SDS011;2025;48.260;16.432;2023-04-06T12:40:09;4.90;;;2.13;;
4021;SDS011;2025;48.260;16.432;2023-04-06T12:42:39;3.78;;;1.48;;
4021;SDS011;2025;48.260;16.432;2023-04-06T12:45:07;4.93;;;1.30;;
4021;SDS011;2025;48.260;16.432;2023-04-06T12:47:35;4.93;;;1.40;;
4021;SDS011;2025;48.260;16.432;2023-04-06T12:50:03;3.75;;;1.35;;
4021;SDS011;2025;48.260;16.432;2023-04-06T12:52:31;5.20;;;1.65;;
4021;SDS011;2025;48.260;16.432;2023-04-06T12:55:00;4.28;;;1.35;;
4021;SDS011;2025;48.260;16.432;2023-04-06T12:57:27;4.75;;;1.75;;
4021;SDS011;2025;48.260;16.432;2023-04-06T12:59:57;4.53;;;1.38;;
4021;SDS011;2025;48.260;16.432;2023-04-06T13:02:25;4.50;;;1.88;;
4021;SDS011;2025;48.260;16.432;2023-04-06T13:04:52;5.72;;;1.70;;
4021;SDS011;2025;48.260;16.432;2023-04-06T13:07:19;3.90;;;1.33;;
4021;SDS011;2025;48.260;16.432;2023-04-06T13:09:46;4.57;;;1.60;;
4021;SDS011;2025;48.260;16.432;2023-04-06T13:12:14;5.72;;;1.58;;
4021;SDS011;2025;48.260;16.432;2023-04-06T13:14:41;4.63;;;1.25;;
4021;SDS011;2025;48.260;16.432;2023-04-06T13:17:10;6.50;;;1.33;;
4021;SDS011;2025;48.260;16.432;2023-04-06T13:19:37;5.15;;;1.40;;
4021;SDS011;2025;48.260;16.432;2023-04-06T13:22:04;4.65;;;1.40;;
4021;SDS011;2025;48.260;16.432;2023-04-06T13:24:31;4.95;;;1.80;;
4021;SDS011;2025;48.260;16.432;2023-04-06T13:26:59;5.10;;;1.52;;
4021;SDS011;2025;48.260;16.432;2023-04-06T13:29:27;5.40;;;1.88;;
4021;SDS011;2025;48.260;16.432;2023-04-06T13:31:54;4.45;;;1.50;;
4021;SDS011;2025;48.260;16.432;2023-04-06T13:34:23;4.57;;;1.35;;
4021;SDS011;2025;48.260;16.432;2023-04-06T13:36:50;5.15;;;1.38;;
4021;SDS011;2025;48.260;16.432;2023-04-06T13:39:17;5.15;;;1.63;;
4021;SDS011;2025;48.260;16.432;2023-04-06T13:41:44;5.53;;;1.85;;
4021;SDS011;2025;48.260;16.432;2023-04-06T13:44:11;4.40;;;1.42;;
4021;SDS011;2025;48.260;16.432;2023-04-06T13:46:38;4.47;;;1.60;;
4021;SDS011;2025;48.260;16.432;2023-04-06T13:49:05;4.63;;;1.60;;
4021;SDS011;2025;48.260;16.432;2023-04-06T13:51:33;5.32;;;2.20;;
4021;SDS011;2025;48.260;16.432;2023-04-06T13:54:00;5.82;;;1.80;;
4021;SDS011;2025;48.260;16.432;2023-04-06T13:56:28;5.40;;;2.03;;
4021;SDS011;2025;48.260;16.432;2023-04-06T13:58:55;5.13;;;2.28;;
4021;SDS011;2025;48.260;16.432;2023-04-06T14:01:22;5.15;;;1.88;;
4021;SDS011;2025;48.260;16.432;2023-04-06T14:03:51;5.07;;;1.90;;
4021;SDS011;2025;48.260;16.432;2023-04-06T14:06:18;5.50;;;1.85;;
4021;SDS011;2025;48.260;16.432;2023-04-06T14:08:47;5.20;;;1.90;;
4021;SDS011;2025;48.260;16.432;2023-04-06T14:11:14;5.15;;;2.17;;
4021;SDS011;2025;48.260;16.432;2023-04-06T14:13:41;5.30;;;2.15;;
4021;SDS011;2025;48.260;16.432;2023-04-06T14:16:08;5.18;;;2.13;;
4021;SDS011;2025;48.260;16.432;2023-04-06T14:18:36;4.70;;;2.42;;
4021;SDS011;2025;48.260;16.432;2023-04-06T14:21:03;5.53;;;2.08;;
4021;SDS011;2025;48.260;16.432;2023-04-06T14:23:30;4.80;;;2.03;;
4021;SDS011;2025;48.260;16.432;2023-04-06T14:26:03;5.00;;;1.85;;
4021;SDS011;2025;48.260;16.432;2023-04-06T14:28:31;6.32;;;2.33;;
4021;SDS011;2025;48.260;16.432;2023-04-06T14:30:59;4.22;;;2.15;;
4021;SDS011;2025;48.260;16.432;2023-04-06T14:33:27;4.10;;;1.98;;
4021;SDS011;2025;48.260;16.432;2023-04-06T14:35:57;5.35;;;2.00;;
4021;SDS011;2025;48.260;16.432;2023-04-06T14:38:24;5.50;;;1.95;;
4021;SDS011;2025;48.260;16.432;2023-04-06T14:40:51;5.47;;;1.80;;
4021;SDS011;2025;48.260;16.432;2023-04-06T14:43:20;4.30;;;1.70;;
4021;SDS011;2025;48.260;16.432;2023-04-06T14:45:47;6.88;;;2.10;;
4021;SDS011;2025;48.260;16.432;2023-04-06T14:48:14;5.20;;;2.42;;
4021;SDS011;2025;48.260;16.432;2023-04-06T14:50:51;5.75;;;1.85;;
4021;SDS011;2025;48.260;16.432;2023-04-06T14:53:18;6.20;;;2.03;;
4021;SDS011;2025;48.260;16.432;2023-04-06T14:55:45;5.50;;;1.90;;
4021;SDS011;2025;48.260;16.432;2023-04-06T14:58:12;5.95;;;2.10;;
4021;SDS011;2025;48.260;16.432;2023-04-06T15:00:40;5.05;;;2.00;;
4021;SDS011;2025;48.260;16.432;2023-04-06T15:03:07;5.57;;;2.00;;
4021;SDS011;2025;48.260;16.432;2023-04-06T15:05:34;4.40;;;1.92;;
4021;SDS011;2025;48.260;16.432;2023-04-06T15:08:01;5.97;;;1.92;;
4021;SDS011;2025;48.260;16.432;2023-04-06T15:10:30;6.25;;;2.15;;
4021;SDS011;2025;48.260;16.432;2023-04-06T15:12:57;5.97;;;2.40;;
4021;SDS011;2025;48.260;16.432;2023-04-06T15:15:24;5.70;;;1.67;;
4021;SDS011;2025;48.260;16.432;2023-04-06T15:17:53;6.57;;;1.67;;
4021;SDS011;2025;48.260;16.432;2023-04-06T15:20:20;5.13;;;2.05;;
4021;SDS011;2025;48.260;16.432;2023-04-06T15:22:47;6.97;;;2.30;;
4021;SDS011;2025;48.260;16.432;2023-04-06T15:25:14;5.65;;;2.42;;
4021;SDS011;2025;48.260;16.432;2023-04-06T15:27:42;5.57;;;2.15;;
4021;SDS011;2025;48.260;16.432;2023-04-06T15:30:09;6.13;;;2.72;;
4021;SDS011;2025;48.260;16.432;2023-04-06T15:32:37;4.90;;;2.15;;
4021;SDS011;2025;48.260;16.432;2023-04-06T15:35:10;4.97;;;2.33;;
4021;SDS011;2025;48.260;16.432;2023-04-06T15:37:37;5.40;;;2.63;;
4021;SDS011;2025;48.260;16.432;2023-04-06T15:40:05;6.55;;;2.33;;
4021;SDS011;2025;48.260;16.432;2023-04-06T15:42:32;5.82;;;2.38;;
4021;SDS011;2025;48.260;16.432;2023-04-06T15:44:59;5.95;;;2.55;;
4021;SDS011;2025;48.260;16.432;2023-04-06T15:47:26;5.80;;;2.15;;
4021;SDS011;2025;48.260;16.432;2023-04-06T15:49:53;6.95;;;2.03;;
4021;SDS011;2025;48.260;16.432;2023-04-06T15:52:22;5.30;;;2.63;;